Time;durP1;ratioP1;P1;durP2;ratioP2;P2;SDS_P1;SDS_P2;PMS_P1;PMS_P2;Temp;Humidity;BMP_temperature;BMP_pressure;BME280_temperature;BME280_humidity;BME280_pressure;Samples;Min_cycle;Max_cycle;Signal;HPM_P1;HPM_P2
2020/12/26 00:00:25;;;;;;;3.62;2.53;;;;;;;;;;4390901;32;20455;-64
2020/12/26 00:02:51;;;;;;;;;;;;;;;;;;4379174;32;20105;-64
2020/12/26 00:05:17;;;;;;;3.67;2.30;;;;;;;;;;4392228;32;19969;-66
2020/12/26 00:07:42;;;;;;;;;;;;;;;;;;4378862;32;20104;-64
2020/12/26 00:10:08;;;;;;;4.53;3.03;;;;;;;;;;4378455;32;20034;-65
2020/12/26 00:12:34;;;;;;;;;;;;;;;;;;4391205;32;20085;-65
2020/12/26 00:15:01;;;;;;;4.85;3.17;;;;;;;;;;4390949;32;19984;-65
2020/12/26 00:17:27;;;;;;;4.15;2.85;;;;;;;;;;4378499;32;20097;-64
2020/12/26 00:19:52;;;;;;;;;;;;;;;;;;4391024;32;20084;-67
2020/12/26 00:22:18;;;;;;;4.68;3.22;;;;;;;;;;4365841;32;19973;-64
2020/12/26 00:24:43;;;;;;;4.30;3.03;;;;;;;;;;4391848;32;20155;-66
2020/12/26 00:27:09;;;;;;;4.68;3.15;;;;;;;;;;4391675;32;20090;-65
2020/12/26 00:29:35;;;;;;;5.12;3.03;;;;;;;;;;4391767;32;20459;-64
2020/12/26 00:32:00;;;;;;;;;;;;;;;;;;4377985;32;20093;-65
2020/12/26 00:34:26;;;;;;;3.72;2.78;;;;;;;;;;4390486;32;19968;-65
2020/12/26 00:36:52;;;;;;;;;;;;;;;;;;4390976;32;20078;-64
2020/12/26 00:39:19;;;;;;;4.50;3.28;;;;;;;;;;4378138;32;20339;-64
2020/12/26 00:41:46;;;;;;;4.15;2.97;;;;;;;;;;4377759;32;20098;-65
2020/12/26 00:44:13;;;;;;;4.57;3.08;;;;;;;;;;4365387;32;20130;-67
2020/12/26 00:46:39;;;;;;;5.30;3.55;;;;;;;;;;4365565;32;20433;-64
2020/12/26 00:49:04;;;;;;;;;;;;;;;;;;4378907;32;20065;-64
2020/12/26 00:51:30;;;;;;;4.50;3.00;;;;;;;;;;4390825;32;19993;-65
2020/12/26 00:53:56;;;;;;;4.53;3.30;;;;;;;;;;4377814;32;20110;-64
2020/12/26 00:56:21;;;;;;;;;;;;;;;;;;4378247;32;20536;-65
2020/12/26 00:58:47;;;;;;;4.57;3.37;;;;;;;;;;4390476;32;20459;-67
2020/12/26 01:01:17;;;;;;;4.57;3.50;;;;;;;;;;4389615;32;20078;-65
2020/12/26 01:03:43;;;;;;;4.90;3.50;;;;;;;;;;4365519;32;20078;-65
2020/12/26 01:06:12;;;;;;;;;;;;;;;;;;4378108;32;20097;-65
2020/12/26 01:08:39;;;;;;;5.50;3.92;;;;;;;;;;4377333;32;20402;-65
2020/12/26 01:11:05;;;;;;;4.90;3.45;;;;;;;;;;4378110;32;20073;-65
2020/12/26 01:13:30;;;;;;;;;;;;;;;;;;4390115;32;20142;-65
2020/12/26 01:15:56;;;;;;;5.80;3.62;;;;;;;;;;4365134;32;20372;-65
2020/12/26 01:18:22;;;;;;;;;;;;;;;;;;4390206;32;20085;-64
2020/12/26 01:20:47;;;;;;;5.47;3.67;;;;;;;;;;4390320;32;20073;-66
2020/12/26 01:23:13;;;;;;;;;;;;;;;;;;4390230;32;20475;-65
2020/12/26 01:26:19;;;;;;;5.82;3.25;;;;;;;;;;4390604;32;19969;-65
2020/12/26 01:29:25;;;;;;;5.15;3.28;;;;;;;;;;4390355;32;20066;-66
2020/12/26 01:32:32;;;;;;;4.47;3.53;;;;;;;;;;4390302;32;20437;-66
2020/12/26 01:35:38;;;;;;;4.00;3.20;;;;;;;;;;4389799;32;20070;-64
2020/12/26 01:38:03;;;;;;;4.20;3.15;;;;;;;;;;4391871;32;20077;-63
2020/12/26 01:40:29;;;;;;;;;;;;;;;;;;4391418;32;20491;-65
2020/12/26 01:42:57;;;;;;;5.32;3.60;;;;;;;;;;4391190;32;19967;-66
2020/12/26 01:45:23;;;;;;;4.93;3.12;;;;;;;;;;4390606;32;20088;-65
2020/12/26 01:47:49;;;;;;;5.32;3.65;;;;;;;;;;4377792;32;20145;-65
2020/12/26 01:50:15;;;;;;;;;;;;;;;;;;4391545;32;20077;-64
2020/12/26 01:52:41;;;;;;;4.75;3.20;;;;;;;;;;4390034;32;19973;-65
2020/12/26 01:55:06;;;;;;;;;;;;;;;;;;4364961;32;20077;-65
2020/12/26 01:57:33;;;;;;;3.87;2.95;;;;;;;;;;4377427;32;20020;-65
2020/12/26 02:00:01;;;;;;;4.37;3.05;;;;;;;;;;4364772;32;20517;-65
2020/12/26 02:02:27;;;;;;;3.35;2.10;;;;;;;;;;4377059;32;20150;-65
2020/12/26 02:04:52;;;;;;;;;;;;;;;;;;4391323;32;20073;-64
2020/12/26 02:07:18;;;;;;;4.60;3.25;;;;;;;;;;4390833;32;19977;-65
2020/12/26 02:09:44;;;;;;;;;;;;;;;;;;4389900;32;20097;-64
2020/12/26 02:12:50;;;;;;;5.50;3.53;;;;;;;;;;4377645;32;19961;-65
2020/12/26 02:15:56;;;;;;;4.05;3.00;;;;;;;;;;4393003;32;20085;-65
2020/12/26 02:19:02;;;;;;;4.53;3.15;;;;;;;;;;4394428;32;20077;-65
2020/12/26 02:21:28;;;;;;;4.20;2.90;;;;;;;;;;4394546;32;20088;-65
2020/12/26 02:23:54;;;;;;;3.72;2.97;;;;;;;;;;4367618;32;20508;-65
2020/12/26 02:26:29;;;;;;;;;;;;;;;;;;4367669;32;20161;-64
2020/12/26 02:28:55;;;;;;;4.43;2.97;;;;;;;;;;4392454;32;19973;-65
2020/12/26 02:31:21;;;;;;;4.28;3.05;;;;;;;;;;4380071;32;20066;-65
2020/12/26 02:33:46;;;;;;;;;;;;;;;;;;4379993;32;20088;-65
2020/12/26 02:36:13;;;;;;;4.43;3.20;;;;;;;;;;4393355;32;20167;-65
2020/12/26 02:38:39;;;;;;;4.37;3.05;;;;;;;;;;4391898;32;20517;-65
2020/12/26 02:41:06;;;;;;;5.12;3.42;;;;;;;;;;4366711;32;20081;-65
2020/12/26 02:43:32;;;;;;;4.90;3.40;;;;;;;;;;4367681;32;20625;-65
2020/12/26 02:45:57;;;;;;;;;;;;;;;;;;4380143;32;20165;-65
2020/12/26 02:48:23;;;;;;;5.00;3.40;;;;;;;;;;4393369;32;19981;-65
2020/12/26 02:50:49;;;;;;;;;;;;;;;;;;4394024;32;20090;-65
2020/12/26 02:53:15;;;;;;;5.05;3.67;;;;;;;;;;4392250;32;19965;-66
2020/12/26 02:55:40;;;;;;;5.28;3.72;;;;;;;;;;4379525;32;20162;-65
2020/12/26 02:58:06;;;;;;;5.50;3.62;;;;;;;;;;4393357;32;20081;-65
2020/12/26 03:00:32;;;;;;;;;;;;;;;;;;4392241;32;20568;-64
2020/12/26 03:02:58;;;;;;;4.60;3.50;;;;;;;;;;4379535;32;19981;-64
2020/12/26 03:05:23;;;;;;;4.93;3.50;;;;;;;;;;4366777;32;20082;-64
2020/12/26 03:07:49;;;;;;;;;;;;;;;;;;4392153;32;20183;-66
2020/12/26 03:10:15;;;;;;;5.60;4.28;;;;;;;;;;4392888;32;19992;-65
2020/12/26 03:12:40;;;;;;;5.60;3.80;;;;;;;;;;4367066;32;20428;-66
2020/12/26 03:15:06;;;;;;;4.97;3.62;;;;;;;;;;4393149;32;20104;-64
2020/12/26 03:17:32;;;;;;;;;;;;;;;;;;4392180;32;20541;-65
2020/12/26 03:19:58;;;;;;;6.15;3.25;;;;;;;;;;4378617;32;19977;-65
2020/12/26 03:22:27;;;;;;;4.97;3.70;;;;;;;;;;4366636;32;20077;-65
2020/12/26 03:24:56;;;;;;;5.03;3.72;;;;;;;;;;4366084;32;20077;-66
2020/12/26 03:27:23;;;;;;;4.93;3.62;;;;;;;;;;4354159;32;20084;-64
2020/12/26 03:29:49;;;;;;;5.37;3.83;;;;;;;;;;4366471;32;20062;-64
2020/12/26 03:32:16;;;;;;;5.07;3.80;;;;;;;;;;4378764;32;20065;-65
2020/12/26 03:35:22;;;;;;;4.53;3.78;;;;;;;;;;4366508;32;20082;-65
2020/12/26 03:38:28;;;;;;;3.75;3.00;;;;;;;;;;4393368;32;20097;-64
2020/12/26 03:41:33;;;;;;;5.75;3.40;;;;;;;;;;4393421;32;20066;-65
2020/12/26 03:43:59;;;;;;;4.53;3.08;;;;;;;;;;4393375;32;20661;-65
2020/12/26 03:46:25;;;;;;;;;;;;;;;;;;4393252;32;20236;-65
2020/12/26 03:48:50;;;;;;;5.32;3.20;;;;;;;;;;4391468;32;20037;-65
2020/12/26 03:51:16;;;;;;;5.57;3.30;;;;;;;;;;4366648;32;20076;-64
2020/12/26 03:53:42;;;;;;;5.80;3.28;;;;;;;;;;4392601;32;20519;-65
2020/12/26 03:56:07;;;;;;;;;;;;;;;;;;4391515;32;20081;-64
2020/12/26 03:58:33;;;;;;;4.57;3.20;;;;;;;;;;4379328;32;19984;-64
2020/12/26 04:00:59;;;;;;;5.20;3.28;;;;;;;;;;4379012;32;20089;-65
2020/12/26 04:03:25;;;;;;;;;;;;;;;;;;4391678;32;20552;-65
2020/12/26 04:05:51;;;;;;;4.40;2.92;;;;;;;;;;4393556;32;20043;-64
2020/12/26 04:08:16;;;;;;;4.95;3.40;;;;;;;;;;4392258;32;20084;-65
2020/12/26 04:10:42;;;;;;;;;;;;;;;;;;4378592;32;20085;-65
2020/12/26 04:13:08;;;;;;;5.87;3.50;;;;;;;;;;4378306;32;19973;-65
2020/12/26 04:15:34;;;;;;;5.97;3.50;;;;;;;;;;4378460;32;20097;-65
2020/12/26 04:18:00;;;;;;;;;;;;;;;;;;4391345;32;20428;-66
2020/12/26 04:20:25;;;;;;;6.10;3.12;;;;;;;;;;4391118;32;20354;-66
2020/12/26 04:22:51;;;;;;;;;;;;;;;;;;4378922;32;20077;-64
2020/12/26 04:25:17;;;;;;;4.55;3.12;;;;;;;;;;4377331;32;19965;-65
2020/12/26 04:27:43;;;;;;;5.35;3.15;;;;;;;;;;4392379;32;20084;-66
2020/12/26 04:30:08;;;;;;;;;;;;;;;;;;4390824;32;20082;-65
2020/12/26 04:32:34;;;;;;;5.10;3.40;;;;;;;;;;4390336;32;19968;-66
2020/12/26 04:35:00;;;;;;;;;;;;;;;;;;4378458;32;20447;-64
2020/12/26 04:37:25;;;;;;;5.00;3.60;;;;;;;;;;4391543;32;19996;-65
2020/12/26 04:39:51;;;;;;;6.00;3.70;;;;;;;;;;4392137;32;20086;-64
2020/12/26 04:42:17;;;;;;;;;;;;;;;;;;4392314;32;20097;-64
2020/12/26 04:44:42;;;;;;;5.55;3.60;;;;;;;;;;4378546;32;19973;-66
2020/12/26 04:47:09;;;;;;;;;;;;;;;;;;4378259;32;20086;-64
2020/12/26 04:49:37;;;;;;;;;;;;;;;;;;4365729;32;19977;-65
2020/12/26 04:52:03;;;;;;;5.95;3.65;;;;;;;;;;4377855;32;20042;-66
2020/12/26 04:54:28;;;;;;;;;;;;;;;;;;4378157;32;20078;-64
2020/12/26 04:56:55;;;;;;;6.80;3.60;;;;;;;;;;4390564;32;20059;-66
2020/12/26 04:59:21;;;;;;;5.85;3.40;;;;;;;;;;4390710;32;20089;-66
2020/12/26 05:01:48;;;;;;;5.55;3.78;;;;;;;;;;4392088;32;20065;-64
2020/12/26 05:04:13;;;;;;;5.70;3.60;;;;;;;;;;4377793;32;20496;-66
2020/12/26 05:06:44;;;;;;;;;;;;;;;;;;4390301;32;20148;-65
2020/12/26 05:09:10;;;;;;;6.15;3.47;;;;;;;;;;4365800;32;19986;-65
2020/12/26 05:11:35;;;;;;;;;;;;;;;;;;4390326;32;20572;-66
2020/12/26 05:14:06;;;;;;;5.00;2.90;;;;;;;;;;4378201;32;20044;-66
2020/12/26 05:16:31;;;;;;;3.90;3.03;;;;;;;;;;4377422;32;20069;-66
2020/12/26 05:18:57;;;;;;;;;;;;;;;;;;4378020;32;20070;-65
2020/12/26 05:21:23;;;;;;;4.47;3.03;;;;;;;;;;4377113;32;19976;-64
2020/12/26 05:24:02;;;;;;;5.85;3.00;;;;;;;;;;4377518;32;20070;-66
2020/12/26 05:26:38;;;;;;;5.87;3.30;;;;;;;;;;4375203;32;20216;-66
2020/12/26 05:29:05;;;;;;;4.25;3.00;;;;;;;;;;4351046;32;20070;-64
2020/12/26 05:34:35;;;;;;;4.40;2.90;;;;;;;;;;3857451;37;20082;-66
2020/12/26 05:37:01;;;;;;;4.25;2.80;;;;;;;;;;4406144;32;20610;-65
2020/12/26 05:39:31;;;;;;;4.85;2.90;;;;;;;;;;4405830;32;20088;-66
2020/12/26 05:41:57;;;;;;;4.20;2.95;;;;;;;;;;4393809;32;20075;-67
2020/12/26 05:44:32;;;;;;;;;;;;;;;;;;4381143;32;20149;-66
2020/12/26 05:47:00;;;;;;;4.87;3.08;;;;;;;;;;4392934;32;20379;-67
2020/12/26 05:49:34;;;;;;;4.22;2.65;;;;;;;;;;4393643;32;20137;-66
2020/12/26 05:52:07;;;;;;;2.72;2.10;;;;;;;;;;4418562;32;20085;-66
2020/12/26 05:54:33;;;;;;;4.07;2.20;;;;;;;;;;4394163;32;20093;-67
2020/12/26 05:57:06;;;;;;;;;;;;;;;;;;4391493;32;20444;-65
2020/12/26 05:59:32;;;;;;;4.10;2.80;;;;;;;;;;4378147;32;19983;-65
2020/12/26 06:02:00;;;;;;;;;;;;;;;;;;4402860;32;20466;-65
2020/12/26 06:04:26;;;;;;;4.10;2.58;;;;;;;;;;4402573;32;20387;-65
2020/12/26 06:06:54;;;;;;;;;;;;;;;;;;4390990;32;20066;-63
2020/12/26 06:09:20;;;;;;;4.65;2.55;;;;;;;;;;4402274;32;20410;-66
2020/12/26 06:12:07;;;;;;;;;;;;;;;;;;4390878;32;20082;-64
2020/12/26 06:15:13;;;;;;;3.15;2.03;;;;;;;;;;4403525;32;20359;-67
2020/12/26 06:18:19;;;;;;;3.97;2.67;;;;;;;;;;4405662;32;20507;-67
2020/12/26 06:20:46;;;;;;;3.33;2.30;;;;;;;;;;4402535;32;20084;-67
2020/12/26 06:23:19;;;;;;;3.70;2.75;;;;;;;;;;4378496;32;20092;-67
2020/12/26 06:25:45;;;;;;;4.37;2.75;;;;;;;;;;4390575;32;20515;-67
2020/12/26 06:28:23;;;;;;;3.65;2.58;;;;;;;;;;4390467;32;20166;-67
2020/12/26 06:30:49;;;;;;;5.45;2.70;;;;;;;;;;4377022;32;20492;-68
2020/12/26 06:33:15;;;;;;;;;;;;;;;;;;4389775;32;20165;-66
2020/12/26 06:35:42;;;;;;;4.25;2.97;;;;;;;;;;4389802;32;19973;-67
2020/12/26 06:38:18;;;;;;;4.37;2.83;;;;;;;;;;4389137;32;20616;-68
2020/12/26 06:40:56;;;;;;;4.60;2.60;;;;;;;;;;4389782;32;20143;-66
2020/12/26 06:43:41;;;;;;;4.57;2.83;;;;;;;;;;4377044;32;20081;-67
2020/12/26 06:46:07;;;;;;;4.43;3.10;;;;;;;;;;4393190;32;20125;-66
2020/12/26 06:48:34;;;;;;;4.15;2.70;;;;;;;;;;4392065;32;20075;-67
2020/12/26 06:51:26;;;;;;;4.80;3.35;;;;;;;;;;4378848;32;20076;-69
2020/12/26 06:53:56;;;;;;;4.55;3.25;;;;;;;;;;4391487;32;20151;-68
2020/12/26 06:56:37;;;;;;;4.62;2.90;;;;;;;;;;4379902;32;20077;-67
2020/12/26 06:59:06;;;;;;;4.25;3.08;;;;;;;;;;4391962;32;20085;-67
2020/12/26 07:01:33;;;;;;;3.83;3.05;;;;;;;;;;4366794;32;20070;-68
2020/12/26 07:04:25;;;;;;;4.78;3.00;;;;;;;;;;4379230;32;20101;-69
2020/12/26 07:06:53;;;;;;;4.87;3.00;;;;;;;;;;4390146;32;20173;-68
2020/12/26 07:09:37;;;;;;;5.87;3.03;;;;;;;;;;4379318;32;20105;-66
2020/12/26 07:12:07;;;;;;;4.45;3.17;;;;;;;;;;4392777;32;20472;-68
2020/12/26 07:14:37;;;;;;;4.22;3.10;;;;;;;;;;4366877;32;20062;-67
2020/12/26 07:17:03;;;;;;;4.85;3.00;;;;;;;;;;4391559;32;20069;-66
2020/12/26 07:19:35;;;;;;;4.93;3.37;;;;;;;;;;4393082;32;20155;-68
2020/12/26 07:22:25;;;;;;;4.50;2.55;;;;;;;;;;4378968;32;20065;-68
2020/12/26 07:24:53;;;;;;;4.07;2.80;;;;;;;;;;4386738;32;20089;-67
2020/12/26 07:27:26;;;;;;;3.95;3.10;;;;;;;;;;4391162;32;20089;-67
2020/12/26 07:30:02;;;;;;;6.80;3.50;;;;;;;;;;4366987;32;20161;-67
2020/12/26 07:32:57;;;;;;;5.60;3.47;;;;;;;;;;4391269;32;20154;-67
2020/12/26 07:35:23;;;;;;;5.53;3.37;;;;;;;;;;4391882;32;20062;-67
2020/12/26 07:37:58;;;;;;;;;;;;;;;;;;4391448;32;20085;-66
2020/12/26 07:40:26;;;;;;;4.10;3.20;;;;;;;;;;4366394;32;20004;-67
2020/12/26 07:42:52;;;;;;;3.67;2.47;;;;;;;;;;4354011;32;20101;-67
2020/12/26 07:45:18;;;;;;;;;;;;;;;;;;4391658;32;20289;-67
2020/12/26 07:48:26;;;;;;;3.55;2.80;;;;;;;;;;4391503;32;20064;-67
2020/12/26 07:51:32;;;;;;;4.28;2.60;;;;;;;;;;4392859;32;20074;-68
2020/12/26 07:54:38;;;;;;;4.80;2.85;;;;;;;;;;4392731;32;20087;-67
2020/12/26 07:57:04;;;;;;;3.92;2.87;;;;;;;;;;4390213;32;20507;-68
2020/12/26 07:59:30;;;;;;;3.72;2.55;;;;;;;;;;4390608;32;20089;-68
2020/12/26 08:01:56;;;;;;;;;;;;;;;;;;4392346;32;20509;-67
2020/12/26 08:04:21;;;;;;;3.75;2.40;;;;;;;;;;4391302;32;19984;-68
2020/12/26 08:06:48;;;;;;;5.62;2.80;;;;;;;;;;4390867;32;20229;-66
2020/12/26 08:09:15;;;;;;;3.90;2.85;;;;;;;;;;4377953;32;20070;-67
2020/12/26 08:11:41;;;;;;;4.95;2.78;;;;;;;;;;4390625;32;20163;-66
2020/12/26 08:14:07;;;;;;;3.53;2.47;;;;;;;;;;4353075;32;20080;-67
2020/12/26 08:16:32;;;;;;;;;;;;;;;;;;4378333;32;20074;-67
2020/12/26 08:19:00;;;;;;;4.78;2.70;;;;;;;;;;4378752;32;19977;-67
2020/12/26 08:21:26;;;;;;;3.42;2.22;;;;;;;;;;4365853;32;20090;-67
2020/12/26 08:23:58;;;;;;;;;;;;;;;;;;4391118;32;20538;-66
2020/12/26 08:26:27;;;;;;;3.92;2.50;;;;;;;;;;4363191;32;19968;-67
2020/12/26 08:29:04;;;;;;;3.80;2.65;;;;;;;;;;4376095;32;20077;-69
2020/12/26 08:31:31;;;;;;;4.00;2.47;;;;;;;;;;4351865;32;20082;-67
2020/12/26 08:34:18;;;;;;;4.40;2.72;;;;;;;;;;4364504;32;20078;-67
2020/12/26 08:36:53;;;;;;;3.95;2.50;;;;;;;;;;4377918;32;20076;-68
2020/12/26 08:39:19;;;;;;;3.53;2.25;;;;;;;;;;4391068;32;20141;-67
2020/12/26 08:41:45;;;;;;;;;;;;;;;;;;4391168;32;20170;-65
2020/12/26 08:44:12;;;;;;;5.20;2.90;;;;;;;;;;4365307;32;20363;-67
2020/12/26 08:46:45;;;;;;;5.60;2.80;;;;;;;;;;4353044;32;20073;-67
2020/12/26 08:49:12;;;;;;;4.95;2.28;;;;;;;;;;4358122;32;20078;-67
2020/12/26 08:51:44;;;;;;;4.32;2.45;;;;;;;;;;4377952;32;20440;-68
2020/12/26 08:54:21;;;;;;;4.12;2.90;;;;;;;;;;4377965;32;20185;-67
2020/12/26 08:56:47;;;;;;;5.35;2.85;;;;;;;;;;4365537;32;20073;-68
2020/12/26 08:59:12;;;;;;;4.75;2.87;;;;;;;;;;4377714;32;20066;-68
2020/12/26 09:01:38;;;;;;;;;;;;;;;;;;4390457;32;20085;-67
2020/12/26 09:04:04;;;;;;;3.95;2.58;;;;;;;;;;4390397;32;20362;-67
2020/12/26 09:06:34;;;;;;;4.65;2.50;;;;;;;;;;4390082;32;20093;-66
2020/12/26 09:09:16;;;;;;;4.40;2.65;;;;;;;;;;4377762;32;20181;-67
2020/12/26 09:11:42;;;;;;;4.10;2.50;;;;;;;;;;4378163;32;20157;-66
2020/12/26 09:14:17;;;;;;;;;;;;;;;;;;4365920;32;20132;-68
2020/12/26 09:17:23;;;;;;;6.43;3.30;;;;;;;;;;4389790;32;20033;-68
2020/12/26 09:20:29;;;;;;;4.20;3.00;;;;;;;;;;4391719;32;20070;-67
2020/12/26 09:23:35;;;;;;;3.85;2.60;;;;;;;;;;4391674;32;20086;-67
2020/12/26 09:26:57;;;;;;;4.87;3.00;;;;;;;;;;4391598;32;20062;-66
2020/12/26 09:29:23;;;;;;;3.90;2.60;;;;;;;;;;4391681;32;20069;-66
2020/12/26 09:31:49;;;;;;;5.82;2.97;;;;;;;;;;4377464;32;20530;-67
2020/12/26 09:34:15;;;;;;;;;;;;;;;;;;4390210;32;20089;-66
2020/12/26 09:36:41;;;;;;;4.55;2.70;;;;;;;;;;4390189;32;19986;-66
2020/12/26 09:39:07;;;;;;;4.43;2.80;;;;;;;;;;4389727;32;20516;-66
2020/12/26 09:41:44;;;;;;;;;;;;;;;;;;4378033;32;20080;-67
2020/12/26 09:44:10;;;;;;;3.85;2.62;;;;;;;;;;4391385;32;19977;-67
2020/12/26 09:46:36;;;;;;;;;;;;;;;;;;4392024;32;20500;-68
2020/12/26 09:49:42;;;;;;;5.45;2.92;;;;;;;;;;4390281;32;19992;-68
2020/12/26 09:52:48;;;;;;;5.00;2.70;;;;;;;;;;4390185;32;20085;-68
2020/12/26 09:55:54;;;;;;;3.80;2.70;;;;;;;;;;4390119;32;20149;-67
2020/12/26 09:59:00;;;;;;;4.20;2.92;;;;;;;;;;4391655;32;20082;-66
2020/12/26 10:01:25;;;;;;;4.47;2.83;;;;;;;;;;4391732;32;20080;-68
2020/12/26 10:03:51;;;;;;;;;;;;;;;;;;4390315;32;20074;-67
2020/12/26 10:06:18;;;;;;;3.28;2.03;;;;;;;;;;4389646;32;20424;-68
2020/12/26 10:08:44;;;;;;;4.10;2.85;;;;;;;;;;4377522;32;20062;-68
2020/12/26 10:11:10;;;;;;;3.60;2.70;;;;;;;;;;4389408;32;20072;-67
2020/12/26 10:13:36;;;;;;;4.32;2.53;;;;;;;;;;4352103;32;20074;-66
2020/12/26 10:16:02;;;;;;;;;;;;;;;;;;4390335;32;20077;-67
2020/12/26 10:18:28;;;;;;;5.03;2.37;;;;;;;;;;4377384;32;19979;-68
2020/12/26 10:20:53;;;;;;;4.45;2.70;;;;;;;;;;4391890;32;20440;-67
2020/12/26 10:23:19;;;;;;;5.10;2.78;;;;;;;;;;4392257;32;20097;-68
2020/12/26 10:25:44;;;;;;;;;;;;;;;;;;4392896;32;20488;-66
2020/12/26 10:28:10;;;;;;;3.53;2.65;;;;;;;;;;4392482;32;19976;-67
2020/12/26 10:30:36;;;;;;;;;;;;;;;;;;4393899;32;20103;-66
2020/12/26 10:33:01;;;;;;;4.30;1.98;;;;;;;;;;4392414;32;20049;-67
2020/12/26 10:35:27;;;;;;;3.87;2.28;;;;;;;;;;4392186;32;20480;-68
2020/12/26 10:37:53;;;;;;;5.10;2.80;;;;;;;;;;4392419;32;20082;-66
2020/12/26 10:40:18;;;;;;;;;;;;;;;;;;4380204;32;20504;-67
2020/12/26 10:42:44;;;;;;;3.55;2.50;;;;;;;;;;4392512;32;19961;-68
2020/12/26 10:45:10;;;;;;;;;;;;;;;;;;4392708;32;20078;-67
2020/12/26 10:47:35;;;;;;;4.87;2.60;;;;;;;;;;4392159;32;19983;-67
2020/12/26 10:50:01;;;;;;;3.25;2.30;;;;;;;;;;4391986;32;20447;-67
2020/12/26 10:52:27;;;;;;;;;;;;;;;;;;4392811;32;20066;-67
2020/12/26 10:54:53;;;;;;;4.07;2.55;;;;;;;;;;4393672;32;19977;-66
2020/12/26 10:57:18;;;;;;;5.25;2.90;;;;;;;;;;4379800;32;20164;-67
2020/12/26 11:00:04;;;;;;;;;;;;;;;;;;4392268;32;20085;-67
2020/12/26 11:03:10;;;;;;;4.20;2.50;;;;;;;;;;4393903;32;19965;-68
2020/12/26 11:06:16;;;;;;;3.95;2.53;;;;;;;;;;4394135;32;20514;-68
2020/12/26 11:09:01;;;;;;;4.68;2.85;;;;;;;;;;4394029;32;20077;-66
2020/12/26 11:11:27;;;;;;;5.43;3.15;;;;;;;;;;4391540;32;20510;-67
2020/12/26 11:13:53;;;;;;;;;;;;;;;;;;4379937;32;20073;-66
2020/12/26 11:16:18;;;;;;;4.80;2.70;;;;;;;;;;4379866;32;19977;-67
2020/12/26 11:18:44;;;;;;;4.12;3.05;;;;;;;;;;4379439;32;20518;-67
2020/12/26 11:21:17;;;;;;;4.32;2.92;;;;;;;;;;4367931;32;20070;-68
2020/12/26 11:23:43;;;;;;;4.05;3.00;;;;;;;;;;4382196;32;20073;-67
2020/12/26 11:26:08;;;;;;;;;;;;;;;;;;4393014;32;20090;-68
2020/12/26 11:28:34;;;;;;;4.10;3.08;;;;;;;;;;4392527;32;19972;-66
2020/12/26 11:31:00;;;;;;;4.80;3.22;;;;;;;;;;4392042;32;20521;-67
2020/12/26 11:33:25;;;;;;;5.70;3.10;;;;;;;;;;4378922;32;20102;-68
2020/12/26 11:35:51;;;;;;;3.37;2.60;;;;;;;;;;4379329;32;20077;-67
2020/12/26 11:38:17;;;;;;;;;;;;;;;;;;4393060;32;20093;-67
2020/12/26 11:40:42;;;;;;;4.30;3.03;;;;;;;;;;4379486;32;19989;-67
2020/12/26 11:43:08;;;;;;;;;;;;;;;;;;4378941;32;20099;-67
2020/12/26 11:45:34;;;;;;;5.18;3.10;;;;;;;;;;4391532;32;19964;-66
2020/12/26 11:48:00;;;;;;;3.53;2.53;;;;;;;;;;4378861;32;20084;-67
2020/12/26 11:50:25;;;;;;;;;;;;;;;;;;4379024;32;20492;-66
2020/12/26 11:52:51;;;;;;;3.72;2.70;;;;;;;;;;4391426;32;19977;-67
2020/12/26 11:55:17;;;;;;;;;;;;;;;;;;4378884;32;20137;-67
2020/12/26 11:57:44;;;;;;;3.53;2.75;;;;;;;;;;4391183;32;19965;-66
2020/12/26 12:00:10;;;;;;;3.75;2.50;;;;;;;;;;4391391;32;20504;-67
2020/12/26 12:02:36;;;;;;;4.62;3.05;;;;;;;;;;4366306;32;20239;-68
2020/12/26 12:05:01;;;;;;;;;;;;;;;;;;4391095;32;20217;-67
2020/12/26 12:07:27;;;;;;;2.97;2.15;;;;;;;;;;4392689;32;20379;-67
2020/12/26 12:09:52;;;;;;;;;;;;;;;;;;4392482;32;20086;-67
2020/12/26 12:12:18;;;;;;;4.28;2.87;;;;;;;;;;4391236;32;20376;-66
2020/12/26 12:14:44;;;;;;;;;;;;;;;;;;4391180;32;20509;-67
2020/12/26 12:17:10;;;;;;;5.78;3.10;;;;;;;;;;4392419;32;20071;-67
2020/12/26 12:19:35;;;;;;;;;;;;;;;;;;4391023;32;20157;-66
2020/12/26 12:22:01;;;;;;;4.78;3.03;;;;;;;;;;4378633;32;19968;-67
2020/12/26 12:24:26;;;;;;;;;;;;;;;;;;4378160;32;20455;-68
2020/12/26 12:26:52;;;;;;;4.90;2.65;;;;;;;;;;4391030;32;19969;-67
2020/12/26 12:29:18;;;;;;;4.60;2.97;;;;;;;;;;4391926;32;20501;-68
2020/12/26 12:31:43;;;;;;;;;;;;;;;;;;4390943;32;20075;-68
2020/12/26 12:34:09;;;;;;;4.62;3.25;;;;;;;;;;4390499;32;19988;-67
2020/12/26 12:36:35;;;;;;;;;;;;;;;;;;4390666;32;20066;-67
2020/12/26 12:39:00;;;;;;;4.50;2.92;;;;;;;;;;4378139;32;19985;-67
2020/12/26 12:41:27;;;;;;;;;;;;;;;;;;4378707;32;20475;-68
2020/12/26 12:43:53;;;;;;;5.45;3.33;;;;;;;;;;4390218;32;20522;-67
2020/12/26 12:46:18;;;;;;;;;;;;;;;;;;4378249;32;20120;-67
2020/12/26 12:48:44;;;;;;;4.12;3.03;;;;;;;;;;4391954;32;20356;-67
2020/12/26 12:51:11;;;;;;;4.68;3.20;;;;;;;;;;4390451;32;20082;-69
2020/12/26 12:53:37;;;;;;;4.97;3.30;;;;;;;;;;4391764;32;20085;-68
2020/12/26 12:56:03;;;;;;;;;;;;;;;;;;4390726;32;20524;-68
2020/12/26 12:58:29;;;;;;;4.70;3.35;;;;;;;;;;4377540;32;20061;-67
2020/12/26 13:00:54;;;;;;;;;;;;;;;;;;4378569;32;20069;-67
2020/12/26 13:03:20;;;;;;;5.25;3.53;;;;;;;;;;4391510;32;20395;-67
2020/12/26 13:05:46;;;;;;;5.45;3.40;;;;;;;;;;4377339;32;20070;-67
2020/12/26 13:08:12;;;;;;;5.40;3.65;;;;;;;;;;4391709;32;20059;-67
2020/12/26 13:10:57;;;;;;;;;;;;;;;;;;4378048;32;20088;-66
2020/12/26 13:14:03;;;;;;;6.70;3.33;;;;;;;;;;4391900;32;19981;-68
2020/12/26 13:17:09;;;;;;;6.28;3.45;;;;;;;;;;4391633;32;20069;-67
2020/12/26 13:19:55;;;;;;;4.80;3.83;;;;;;;;;;4391720;32;20073;-67
2020/12/26 13:22:20;;;;;;;4.60;3.05;;;;;;;;;;4389944;32;20066;-67
2020/12/26 13:24:46;;;;;;;;;;;;;;;;;;4391924;32;20062;-71
2020/12/26 13:27:12;;;;;;;4.78;3.28;;;;;;;;;;4391442;32;19977;-68
2020/12/26 13:29:37;;;;;;;;;;;;;;;;;;4390275;32;20089;-66
2020/12/26 13:32:03;;;;;;;6.20;3.78;;;;;;;;;;4375187;32;19980;-68
2020/12/26 13:34:29;;;;;;;;;;;;;;;;;;4350258;32;20158;-67
2020/12/26 13:36:57;;;;;;;5.28;3.70;;;;;;;;;;4350567;32;19969;-68
2020/12/26 13:39:23;;;;;;;7.00;3.80;;;;;;;;;;4362484;32;20143;-66
2020/12/26 13:41:51;;;;;;;;;;;;;;;;;;4375550;32;20098;-67
2020/12/26 13:44:17;;;;;;;5.28;3.47;;;;;;;;;;4362018;32;20408;-67
2020/12/26 13:46:45;;;;;;;6.40;3.37;;;;;;;;;;4374964;32;20059;-67
2020/12/26 13:49:11;;;;;;;5.78;3.17;;;;;;;;;;4337966;32;20097;-68
2020/12/26 13:51:36;;;;;;;;;;;;;;;;;;4337617;32;20452;-68
2020/12/26 13:54:02;;;;;;;5.68;3.50;;;;;;;;;;4376064;32;19984;-68
2020/12/26 13:56:28;;;;;;;4.57;3.37;;;;;;;;;;4377934;32;20113;-67
2020/12/26 13:58:53;;;;;;;;;;;;;;;;;;4378126;32;20449;-68
2020/12/26 14:01:19;;;;;;;5.68;3.03;;;;;;;;;;4365803;32;19961;-68
2020/12/26 14:03:45;;;;;;;6.55;3.10;;;;;;;;;;4340878;32;20601;-66
2020/12/26 14:06:12;;;;;;;3.80;2.60;;;;;;;;;;4365230;32;20101;-68
2020/12/26 14:08:41;;;;;;;5.03;3.20;;;;;;;;;;4365146;32;20081;-68
2020/12/26 14:11:08;;;;;;;6.03;2.95;;;;;;;;;;4365301;32;20077;-68
2020/12/26 14:13:35;;;;;;;6.47;3.50;;;;;;;;;;4352870;32;20157;-68
2020/12/26 14:16:01;;;;;;;4.57;3.10;;;;;;;;;;4352717;32;20059;-67
2020/12/26 14:18:27;;;;;;;4.75;3.10;;;;;;;;;;4352774;32;20489;-68
2020/12/26 14:20:53;;;;;;;;;;;;;;;;;;4377728;32;20139;-66
2020/12/26 14:23:19;;;;;;;4.75;2.65;;;;;;;;;;4378977;32;19985;-67
2020/12/26 14:25:46;;;;;;;;;;;;;;;;;;4388895;32;20077;-68
2020/12/26 14:28:12;;;;;;;4.57;3.25;;;;;;;;;;4379737;32;20044;-68
2020/12/26 14:30:38;;;;;;;;;;;;;;;;;;4393022;32;20077;-66
2020/12/26 14:33:04;;;;;;;7.85;3.25;;;;;;;;;;4391697;32;19973;-67
2020/12/26 14:35:29;;;;;;;;;;;;;;;;;;4392883;32;20089;-68
2020/12/26 14:37:55;;;;;;;5.70;3.50;;;;;;;;;;4380260;32;20074;-69
2020/12/26 14:40:20;;;;;;;;;;;;;;;;;;4394231;32;20159;-66
2020/12/26 14:42:46;;;;;;;5.20;3.08;;;;;;;;;;4392524;32;19961;-67
2020/12/26 14:45:12;;;;;;;5.80;3.03;;;;;;;;;;4392380;32;20098;-67
2020/12/26 14:47:39;;;;;;;4.97;3.12;;;;;;;;;;4392706;32;20077;-67
2020/12/26 14:50:05;;;;;;;5.45;2.65;;;;;;;;;;4392013;32;20085;-67
2020/12/26 14:52:30;;;;;;;;;;;;;;;;;;4367572;32;20442;-68
2020/12/26 14:54:56;;;;;;;3.78;2.53;;;;;;;;;;4379390;32;20346;-68
2020/12/26 14:57:22;;;;;;;5.60;3.10;;;;;;;;;;4392044;32;20074;-68
2020/12/26 14:59:47;;;;;;;;;;;;;;;;;;4392475;32;20109;-67
2020/12/26 15:02:13;;;;;;;5.90;3.10;;;;;;;;;;4393338;32;20374;-66
2020/12/26 15:04:38;;;;;;;;;;;;;;;;;;4392209;32;20094;-70
2020/12/26 15:07:04;;;;;;;4.82;3.08;;;;;;;;;;4393045;32;19969;-67
2020/12/26 15:09:30;;;;;;;5.03;3.12;;;;;;;;;;4379677;32;20085;-66
2020/12/26 15:11:56;;;;;;;;;;;;;;;;;;4380060;32;20158;-67
2020/12/26 15:14:21;;;;;;;5.15;3.30;;;;;;;;;;4379419;32;19985;-68
2020/12/26 15:16:47;;;;;;;;;;;;;;;;;;4379736;32;20101;-66
2020/12/26 15:19:13;;;;;;;5.05;3.05;;;;;;;;;;4379297;32;20331;-67
2020/12/26 15:21:38;;;;;;;;;;;;;;;;;;4379864;32;20502;-68
2020/12/26 15:24:04;;;;;;;6.53;4.43;;;;;;;;;;4391715;32;19964;-67
2020/12/26 15:26:29;;;;;;;;;;;;;;;;;;4379532;32;20186;-67
2020/12/26 15:28:55;;;;;;;5.15;3.10;;;;;;;;;;4379297;32;20371;-68
2020/12/26 15:31:20;;;;;;;;;;;;;;;;;;4393730;32;20086;-67
2020/12/26 15:33:48;;;;;;;5.03;3.25;;;;;;;;;;4392733;32;20474;-67